Time;durP1;ratioP1;P1;durP2;ratioP2;P2;SDS_P1;SDS_P2;PMS_P1;PMS_P2;Temp;Humidity;BMP_temperature;BMP_pressure;BME280_temperature;BME280_humidity;BME280_pressure;Samples;Min_cycle;Max_cycle;Signal;HPM_P1;HPM_P2
2024/03/04 00:00:46;;;;;;;12.07;6.90;;;5.40;17.10;;;;;;5031235;28;20406;-67
2024/03/04 00:03:12;;;;;;;7.63;5.57;;;5.40;17.70;;;;;;5030913;28;20943;-68
2024/03/04 00:05:39;;;;;;;9.43;6.63;;;5.40;17.80;;;;;;5031147;28;20430;-70
2024/03/04 00:08:04;;;;;;;8.73;5.90;;;5.40;18.10;;;;;;5030949;28;20229;-69
2024/03/04 00:10:30;;;;;;;8.70;6.27;;;5.40;17.60;;;;;;5013349;28;20417;-68
2024/03/04 00:12:56;;;;;;;9.00;6.30;;;5.40;17.80;;;;;;5031185;28;20250;-69
2024/03/04 00:15:23;;;;;;;11.87;7.10;;;5.40;18.20;;;;;;5013064;28;20221;-68
2024/03/04 00:17:51;;;;;;;15.77;7.07;;;5.50;17.80;;;;;;5013231;28;20519;-67
2024/03/04 00:20:18;;;;;;;9.37;6.73;;;5.50;17.10;;;;;;5031262;28;20418;-70
2024/03/04 00:22:47;;;;;;;8.13;6.57;;;5.50;17.50;;;;;;5013434;28;20418;-69
2024/03/04 00:25:18;;;;;;;7.90;6.07;;;5.50;17.80;;;;;;5031233;28;20525;-68
2024/03/04 00:27:44;;;;;;;11.03;7.30;;;5.60;17.50;;;;;;5013763;28;20509;-68
2024/03/04 00:30:11;;;;;;;12.03;6.77;;;5.60;17.20;;;;;;5031486;28;20597;-67
2024/03/04 00:32:37;;;;;;;7.53;6.00;;;5.60;16.90;;;;;;5032198;28;20486;-68
2024/03/04 00:35:05;;;;;;;9.43;6.70;;;5.60;17.20;;;;;;5034388;28;20437;-69
2024/03/04 00:37:31;;;;;;;10.03;6.23;;;5.60;16.90;;;;;;5016989;28;20450;-69
2024/03/04 00:39:56;;;;;;;11.27;7.53;;;5.60;17.80;;;;;;5040524;28;20766;-69
2024/03/04 00:42:25;;;;;;;9.40;7.80;;;5.60;17.50;;;;;;5041724;28;20183;-69
2024/03/04 00:44:55;;;;;;;11.60;7.30;;;5.60;17.50;;;;;;5032981;28;20182;-68
2024/03/04 00:47:20;;;;;;;8.57;7.13;;;5.60;17.00;;;;;;5031261;28;20469;-68
2024/03/04 00:49:46;;;;;;;12.53;8.03;;;5.60;18.30;;;;;;5031639;28;20422;-68
2024/03/04 00:52:12;;;;;;;13.00;8.37;;;5.60;18.20;;;;;;5031262;28;20179;-69
2024/03/04 00:54:38;;;;;;;9.23;7.77;;;5.60;17.80;;;;;;5013097;28;20191;-68
2024/03/04 00:57:04;;;;;;;14.20;8.07;;;5.70;17.10;;;;;;5034993;28;20429;-68
2024/03/04 00:59:30;;;;;;;15.43;8.27;;;5.70;17.10;;;;;;5035169;28;20503;-69
2024/03/04 01:01:56;;;;;;;15.23;8.30;;;5.60;18.00;;;;;;5034712;28;20418;-68
2024/03/04 01:04:21;;;;;;;14.00;8.93;;;5.70;18.40;;;;;;5034106;28;20405;-68
2024/03/04 01:06:51;;;;;;;14.30;9.03;;;5.70;17.50;;;;;;5034384;28;20272;-68
2024/03/04 01:09:18;;;;;;;13.97;7.90;;;5.70;18.30;;;;;;5034226;28;20676;-68
2024/03/04 01:11:43;;;;;;;13.50;9.00;;;5.80;18.50;;;;;;5034171;28;20426;-68
2024/03/04 01:14:09;;;;;;;13.60;7.30;;;5.80;18.10;;;;;;5034118;28;20509;-68
2024/03/04 01:16:34;;;;;;;13.67;8.10;;;5.90;18.30;;;;;;5016302;28;20659;-69
2024/03/04 01:19:00;;;;;;;15.13;8.50;;;5.90;17.90;;;;;;5034065;28;20231;-68
2024/03/04 01:21:25;;;;;;;13.87;8.90;;;5.90;18.30;;;;;;5034027;28;20175;-68
2024/03/04 01:23:51;;;;;;;15.30;9.57;;;5.90;19.00;;;;;;5033824;28;20234;-68
2024/03/04 01:26:17;;;;;;;11.87;8.07;;;5.90;18.80;;;;;;5033892;28;20218;-69
2024/03/04 01:28:43;;;;;;;11.93;8.00;;;5.90;18.90;;;;;;5033875;28;20182;-68
2024/03/04 01:31:08;;;;;;;14.00;9.70;;;5.90;19.30;;;;;;5033608;28;20423;-68
2024/03/04 01:33:34;;;;;;;15.77;10.00;;;5.90;20.10;;;;;;5033554;28;20184;-68
2024/03/04 01:36:00;;;;;;;15.03;9.90;;;5.90;20.70;;;;;;5015908;28;20546;-67
2024/03/04 01:38:26;;;;;;;18.10;11.13;;;5.90;20.70;;;;;;5034012;28;20202;-68
2024/03/04 01:40:52;;;;;;;18.90;11.67;;;5.90;21.60;;;;;;5033769;28;20418;-68
2024/03/04 01:43:18;;;;;;;18.63;13.83;;;6.00;22.50;;;;;;5033624;28;20428;-68
2024/03/04 01:45:44;;;;;;;16.60;10.63;;;6.00;23.40;;;;;;5033345;28;20445;-67
2024/03/04 01:48:10;;;;;;;18.03;12.70;;;6.00;24.30;;;;;;5033384;28;20215;-67
2024/03/04 01:50:39;;;;;;;19.73;12.87;;;6.10;24.40;;;;;;5033309;28;20210;-67
2024/03/04 01:53:06;;;;;;;14.97;10.50;;;6.10;24.80;;;;;;5033381;28;20414;-67
2024/03/04 01:55:38;;;;;;;18.20;12.60;;;6.10;24.10;;;;;;5033188;28;20439;-67
2024/03/04 01:58:05;;;;;;;15.70;12.87;;;6.10;24.20;;;;;;5015531;28;20503;-67
2024/03/04 02:00:34;;;;;;;16.70;12.60;;;6.10;25.00;;;;;;5033151;28;20421;-67
2024/03/04 02:03:00;;;;;;;17.40;12.73;;;6.20;26.40;;;;;;5033128;28;20791;-68
2024/03/04 02:05:25;;;;;;;24.23;13.90;;;6.20;26.80;;;;;;5032962;28;20458;-68
2024/03/04 02:07:51;;;;;;;18.20;13.83;;;6.10;27.30;;;;;;5032898;28;20857;-68
2024/03/04 02:10:17;;;;;;;19.70;14.23;;;6.20;28.00;;;;;;5033153;28;20706;-67
2024/03/04 02:12:42;;;;;;;19.00;12.30;;;6.20;27.10;;;;;;5033609;28;20183;-68
2024/03/04 02:15:08;;;;;;;20.67;13.43;;;6.20;26.70;;;;;;5015475;28;20194;-68
2024/03/04 02:17:34;;;;;;;21.60;14.07;;;6.30;28.60;;;;;;5033327;28;20523;-67
2024/03/04 02:20:09;;;;;;;22.03;13.50;;;6.30;28.40;;;;;;5015576;28;20182;-67
2024/03/04 02:22:35;;;;;;;19.97;12.80;;;6.40;29.20;;;;;;5033367;28;20509;-67
2024/03/04 02:25:00;;;;;;;19.83;12.47;;;6.30;29.20;;;;;;5031334;28;20965;-68
2024/03/04 02:27:26;;;;;;;19.20;12.00;;;6.40;29.20;;;;;;5032781;28;20175;-68
2024/03/04 02:29:52;;;;;;;18.17;14.20;;;6.50;30.70;;;;;;5032629;28;20185;-68
2024/03/04 02:32:17;;;;;;;16.47;13.23;;;6.50;31.10;;;;;;5032667;28;20279;-69
2024/03/04 02:34:47;;;;;;;17.17;12.17;;;6.50;31.30;;;;;;5032374;28;20419;-68
2024/03/04 02:37:13;;;;;;;20.10;14.50;;;6.60;31.60;;;;;;5032445;28;20199;-68
2024/03/04 02:39:41;;;;;;;19.67;13.13;;;6.60;30.80;;;;;;5014745;28;20416;-68
2024/03/04 02:42:07;;;;;;;21.60;13.40;;;6.60;30.80;;;;;;5014542;28;20453;-67
2024/03/04 02:44:33;;;;;;;17.20;12.57;;;6.60;29.50;;;;;;5014326;28;20504;-67
2024/03/04 02:46:59;;;;;;;18.20;12.27;;;6.70;31.10;;;;;;5032036;28;20545;-68
2024/03/04 02:49:24;;;;;;;17.23;13.23;;;6.60;30.40;;;;;;5014525;28;20418;-68
2024/03/04 02:51:55;;;;;;;20.20;13.77;;;6.70;30.90;;;;;;5032458;28;20253;-68
2024/03/04 02:54:21;;;;;;;22.03;13.90;;;6.70;31.50;;;;;;5014776;28;20208;-68
2024/03/04 02:56:47;;;;;;;18.60;12.30;;;6.70;31.80;;;;;;5032232;28;20436;-67
2024/03/04 02:59:12;;;;;;;22.13;15.00;;;6.80;32.40;;;;;;5032447;28;20200;-67
2024/03/04 03:01:39;;;;;;;16.50;12.67;;;6.80;33.70;;;;;;5032079;28;20656;-68
2024/03/04 03:04:04;;;;;;;19.93;14.20;;;6.90;33.70;;;;;;5032042;28;20196;-68
2024/03/04 03:06:30;;;;;;;20.13;13.90;;;6.90;34.60;;;;;;5032021;28;20464;-68
2024/03/04 03:08:56;;;;;;;18.83;13.23;;;7.00;36.30;;;;;;5032530;28;20176;-68
2024/03/04 03:11:22;;;;;;;17.50;13.70;;;7.00;35.50;;;;;;5032257;28;20548;-67
2024/03/04 03:13:48;;;;;;;15.97;12.90;;;7.00;36.50;;;;;;5031745;28;20197;-68
2024/03/04 03:16:21;;;;;;;17.93;13.40;;;7.10;34.70;;;;;;5056769;22;20502;-71
2024/03/04 03:18:49;;;;;;;16.83;13.23;;;7.20;33.30;;;;;;5015058;28;20221;-72
2024/03/04 03:21:16;;;;;;;19.73;13.57;;;7.20;33.00;;;;;;5015784;28;20420;-72
2024/03/04 03:23:50;;;;;;;19.87;13.70;;;7.30;32.80;;;;;;4998876;28;20465;-71
2024/03/04 03:26:23;;;;;;;20.33;15.40;;;7.30;32.30;;;;;;5024004;28;20434;-71
2024/03/04 03:28:48;;;;;;;18.47;13.90;;;7.30;30.90;;;;;;4995831;28;20479;-72
2024/03/04 03:31:15;;;;;;;22.50;13.83;;;7.30;30.10;;;;;;4995736;28;20985;-71
2024/03/04 03:33:41;;;;;;;18.63;13.77;;;7.30;29.80;;;;;;4995531;28;20423;-71
2024/03/04 03:36:07;;;;;;;17.23;12.73;;;7.30;29.80;;;;;;4995667;28;20440;-72
2024/03/04 03:38:33;;;;;;;19.27;12.73;;;7.30;30.00;;;;;;5013236;28;20197;-72
2024/03/04 03:41:00;;;;;;;17.57;12.60;;;7.30;29.80;;;;;;5013385;28;20937;-72
2024/03/04 03:43:28;;;;;;;19.43;13.90;;;7.30;29.40;;;;;;4995545;28;20415;-71
2024/03/04 03:45:54;;;;;;;15.03;11.73;;;7.30;29.80;;;;;;4996044;28;20536;-70
2024/03/04 03:48:20;;;;;;;21.43;12.77;;;7.40;28.20;;;;;;5015021;28;20449;-72
2024/03/04 03:50:52;;;;;;;15.90;12.27;;;7.30;28.30;;;;;;5015471;28;20177;-72
2024/03/04 03:53:18;;;;;;;20.13;13.50;;;7.30;29.20;;;;;;4995451;28;20505;-71
2024/03/04 03:55:44;;;;;;;18.57;14.00;;;7.40;28.00;;;;;;5012698;28;20464;-72
2024/03/04 03:58:10;;;;;;;16.53;12.10;;;7.50;28.20;;;;;;4995229;28;20460;-71
2024/03/04 04:00:36;;;;;;;16.43;13.07;;;7.60;27.00;;;;;;4995033;28;20443;-71
2024/03/04 04:03:02;;;;;;;17.33;13.30;;;7.60;25.90;;;;;;5012752;28;20689;-71
2024/03/04 04:05:28;;;;;;;16.67;12.20;;;7.60;25.90;;;;;;5012540;28;20531;-71
2024/03/04 04:07:53;;;;;;;14.93;11.10;;;7.70;25.50;;;;;;5012650;28;20218;-70
2024/03/04 04:10:20;;;;;;;19.70;11.20;;;7.80;25.20;;;;;;4995169;28;20194;-71
2024/03/04 04:12:46;;;;;;;17.97;11.70;;;7.80;24.00;;;;;;5012521;28;20182;-70
2024/03/04 04:15:12;;;;;;;18.00;11.90;;;7.90;23.70;;;;;;5012036;28;20413;-71
2024/03/04 04:17:37;;;;;;;15.73;12.63;;;7.90;23.80;;;;;;5012380;28;20424;-70
2024/03/04 04:20:06;;;;;;;17.10;12.27;;;7.90;22.00;;;;;;5012414;28;20509;-70
2024/03/04 04:22:32;;;;;;;19.83;12.97;;;7.90;21.90;;;;;;5012373;28;20174;-71
2024/03/04 04:24:58;;;;;;;17.57;12.50;;;7.90;22.00;;;;;;5012432;28;20797;-71
2024/03/04 04:27:23;;;;;;;16.93;11.70;;;7.90;22.00;;;;;;5012562;28;20196;-70
2024/03/04 04:29:49;;;;;;;19.87;12.77;;;7.90;22.00;;;;;;5014490;28;20187;-70
2024/03/04 04:32:15;;;;;;;15.60;11.37;;;7.90;22.00;;;;;;5016250;28;20175;-71
2024/03/04 04:34:41;;;;;;;13.90;11.57;;;7.90;21.50;;;;;;4998818;28;20259;-71
2024/03/04 04:37:07;;;;;;;15.00;11.10;;;7.90;22.00;;;;;;5016716;28;20445;-72
2024/03/04 04:39:32;;;;;;;17.10;11.50;;;7.90;22.00;;;;;;4999000;28;20474;-70
2024/03/04 04:41:58;;;;;;;15.97;11.10;;;7.90;21.20;;;;;;5016931;28;20783;-71
2024/03/04 04:44:24;;;;;;;16.00;11.37;;;7.90;22.00;;;;;;4998889;28;20607;-72
2024/03/04 04:46:50;;;;;;;19.13;13.13;;;7.80;22.00;;;;;;5016299;28;20626;-71
2024/03/04 04:49:16;;;;;;;18.77;13.20;;;7.90;22.00;;;;;;4998656;28;20209;-71
2024/03/04 04:51:41;;;;;;;14.70;11.00;;;7.90;21.80;;;;;;4998484;28;20437;-72
2024/03/04 04:54:07;;;;;;;14.80;10.90;;;7.90;21.50;;;;;;5016205;28;20439;-70
2024/03/04 04:56:32;;;;;;;16.67;11.90;;;8.00;20.80;;;;;;4998846;28;20559;-71
2024/03/04 04:58:58;;;;;;;19.47;12.00;;;8.00;19.60;;;;;;5016385;28;20197;-70
2024/03/04 05:01:26;;;;;;;16.90;11.63;;;8.00;20.40;;;;;;5016189;28;20174;-71
2024/03/04 05:03:52;;;;;;;16.43;9.63;;;8.00;19.70;;;;;;5016305;28;20175;-71
2024/03/04 05:06:18;;;;;;;17.20;12.33;;;7.90;21.10;;;;;;4998569;28;20445;-71
2024/03/04 05:08:44;;;;;;;19.53;11.67;;;7.90;20.80;;;;;;4998417;28;20440;-71
2024/03/04 05:11:10;;;;;;;16.20;10.80;;;7.90;21.10;;;;;;4998537;28;20413;-71
2024/03/04 05:13:35;;;;;;;17.97;11.43;;;7.90;20.50;;;;;;5015903;28;20662;-72
2024/03/04 05:16:01;;;;;;;14.67;11.80;;;7.90;20.70;;;;;;4998134;28;20218;-72
2024/03/04 05:18:26;;;;;;;14.93;11.03;;;7.90;20.70;;;;;;5015782;28;20291;-70
2024/03/04 05:20:52;;;;;;;13.90;11.00;;;7.90;20.50;;;;;;5015641;28;20183;-72
2024/03/04 05:23:18;;;;;;;17.20;11.47;;;7.80;20.50;;;;;;5015742;28;20179;-70
2024/03/04 05:25:43;;;;;;;16.40;11.80;;;7.80;20.80;;;;;;4997768;28;20198;-71
2024/03/04 05:28:09;;;;;;;14.13;10.97;;;7.90;21.60;;;;;;4997862;28;20190;-72
2024/03/04 05:30:34;;;;;;;20.10;12.70;;;7.90;20.20;;;;;;5015649;28;20208;-71
2024/03/04 05:33:00;;;;;;;17.17;12.33;;;7.90;20.60;;;;;;4997617;28;20249;-70
2024/03/04 05:35:26;;;;;;;17.93;12.80;;;7.90;20.20;;;;;;4997542;28;20610;-70
2024/03/04 05:37:51;;;;;;;15.40;11.80;;;8.00;19.80;;;;;;5015285;28;20194;-71
2024/03/04 05:40:21;;;;;;;14.90;11.57;;;8.00;20.40;;;;;;5015292;28;20179;-70
2024/03/04 05:42:47;;;;;;;17.93;12.63;;;8.10;19.60;;;;;;5014565;28;20410;-71
2024/03/04 05:45:12;;;;;;;16.80;12.30;;;8.00;19.50;;;;;;4997197;28;20818;-71
2024/03/04 05:47:38;;;;;;;18.20;11.10;;;8.10;19.80;;;;;;5014967;28;20658;-71
2024/03/04 05:50:05;;;;;;;16.33;11.47;;;8.10;20.20;;;;;;5014914;28;20308;-71
2024/03/04 05:52:31;;;;;;;13.63;9.43;;;8.10;19.60;;;;;;5015204;28;20425;-71
2024/03/04 05:54:57;;;;;;;21.13;13.83;;;8.20;18.30;;;;;;4997102;28;20418;-71
2024/03/04 05:57:23;;;;;;;17.90;11.90;;;8.10;18.90;;;;;;5017491;28;20942;-71
2024/03/04 05:59:48;;;;;;;17.33;12.20;;;8.10;19.20;;;;;;5016827;28;20183;-70
2024/03/04 06:02:14;;;;;;;15.80;10.57;;;8.10;19.80;;;;;;5034464;28;20175;-71
2024/03/04 06:04:40;;;;;;;16.77;12.07;;;8.20;18.80;;;;;;5016910;28;20174;-71
2024/03/04 06:07:06;;;;;;;16.20;11.80;;;8.20;18.70;;;;;;5016559;28;20224;-70
2024/03/04 06:09:31;;;;;;;15.07;10.73;;;8.20;18.50;;;;;;5016729;28;20421;-71
2024/03/04 06:11:57;;;;;;;16.13;12.20;;;8.20;17.90;;;;;;5036020;28;20281;-71
2024/03/04 06:14:23;;;;;;;16.17;11.90;;;8.20;17.90;;;;;;5017757;28;20188;-71
2024/03/04 06:16:50;;;;;;;21.77;14.73;;;8.30;18.00;;;;;;5016834;28;20593;-71
2024/03/04 06:19:15;;;;;;;15.27;11.50;;;8.30;17.30;;;;;;5016582;28;20468;-71
2024/03/04 06:21:42;;;;;;;17.13;11.80;;;8.30;18.00;;;;;;5034512;28;20423;-70
2024/03/04 06:24:08;;;;;;;17.43;11.43;;;8.20;17.90;;;;;;5016527;28;20257;-71
2024/03/04 06:26:34;;;;;;;21.53;13.03;;;8.20;19.70;;;;;;5034414;28;20432;-70
2024/03/04 06:28:59;;;;;;;16.10;11.20;;;8.20;18.70;;;;;;5033861;28;20464;-68
2024/03/04 06:31:26;;;;;;;19.20;11.90;;;8.20;18.90;;;;;;5033589;28;20419;-69
2024/03/04 06:33:52;;;;;;;16.20;11.13;;;8.20;19.30;;;;;;5033365;28;20181;-69
2024/03/04 06:36:18;;;;;;;19.80;12.70;;;8.20;19.30;;;;;;5033642;28;20447;-75
2024/03/04 06:38:45;;;;;;;16.90;12.50;;;8.30;19.00;;;;;;5033815;28;20460;-68
2024/03/04 06:41:11;;;;;;;17.60;12.10;;;8.30;18.80;;;;;;5015918;28;20478;-69
2024/03/04 06:43:36;;;;;;;19.07;11.90;;;8.40;18.10;;;;;;5033359;28;20406;-68
2024/03/04 06:46:02;;;;;;;12.83;9.80;;;8.40;18.60;;;;;;4999238;28;20202;-69
2024/03/04 06:48:28;;;;;;;14.40;10.07;;;8.40;18.10;;;;;;5033590;28;20181;-68
2024/03/04 06:50:54;;;;;;;17.77;12.00;;;8.50;17.10;;;;;;5015608;28;20789;-69
2024/03/04 06:53:19;;;;;;;15.43;11.97;;;8.40;17.00;;;;;;5015013;28;20249;-69
2024/03/04 06:55:45;;;;;;;15.60;11.53;;;8.40;17.30;;;;;;5016022;28;20212;-68
2024/03/04 06:58:11;;;;;;;14.87;10.60;;;8.40;16.70;;;;;;5020410;28;20210;-69
2024/03/04 07:00:36;;;;;;;15.80;10.70;;;8.50;16.90;;;;;;5039795;28;20178;-69
2024/03/04 07:03:04;;;;;;;11.87;9.93;;;8.40;16.90;;;;;;5040030;28;20229;-71
2024/03/04 07:05:30;;;;;;;12.60;10.87;;;8.40;17.20;;;;;;5021672;28;20219;-69
2024/03/04 07:07:56;;;;;;;17.83;10.83;;;8.50;17.80;;;;;;5034766;28;20420;-69
2024/03/04 07:10:22;;;;;;;17.70;10.93;;;8.50;16.90;;;;;;5034787;28;20205;-69
2024/03/04 07:12:48;;;;;;;18.80;10.97;;;8.50;17.10;;;;;;5033989;28;20186;-69
2024/03/04 07:15:20;;;;;;;13.60;10.17;;;8.60;15.60;;;;;;5111898;27;20544;-69
2024/03/04 07:17:46;;;;;;;12.43;9.17;;;8.60;15.90;;;;;;5112292;28;20463;-69
2024/03/04 07:20:12;;;;;;;13.20;9.23;;;8.50;14.80;;;;;;5111648;28;20215;-68
2024/03/04 07:22:38;;;;;;;14.63;10.80;;;8.60;15.00;;;;;;5109789;28;20194;-68
2024/03/04 07:25:04;;;;;;;14.50;9.60;;;8.60;14.60;;;;;;5110590;28;20413;-70
2024/03/04 07:27:30;;;;;;;14.83;9.93;;;8.70;14.50;;;;;;5110571;28;20217;-70
2024/03/04 07:29:56;;;;;;;15.97;9.27;;;8.70;13.90;;;;;;5110484;28;20440;-70
2024/03/04 07:32:21;;;;;;;18.33;11.20;;;8.70;14.00;;;;;;5109028;28;20553;-73
2024/03/04 07:34:47;;;;;;;12.40;9.63;;;8.70;14.00;;;;;;5108505;28;20212;-72
2024/03/04 07:37:13;;;;;;;14.50;11.20;;;8.70;13.50;;;;;;5110077;28;20200;-72
2024/03/04 07:39:38;;;;;;;15.13;10.30;;;8.80;13.40;;;;;;5108429;28;20185;-72
2024/03/04 07:42:04;;;;;;;14.67;10.10;;;8.70;13.40;;;;;;5109739;28;20252;-72
2024/03/04 07:44:30;;;;;;;14.30;9.93;;;8.70;13.30;;;;;;5108140;28;20180;-72
2024/03/04 07:46:55;;;;;;;13.10;9.47;;;8.70;14.00;;;;;;5108323;28;20204;-72
2024/03/04 07:49:21;;;;;;;13.50;9.90;;;8.70;13.60;;;;;;5109571;28;20682;-72
2024/03/04 07:51:46;;;;;;;14.53;9.50;;;8.60;13.90;;;;;;5108408;28;20183;-73
2024/03/04 07:54:12;;;;;;;15.47;9.30;;;8.60;14.70;;;;;;5109101;28;20246;-72
2024/03/04 07:56:41;;;;;;;13.00;8.53;;;8.60;15.00;;;;;;5107991;28;20202;-72
2024/03/04 07:59:07;;;;;;;14.50;9.20;;;8.60;15.00;;;;;;5108146;28;20233;-71
2024/03/04 08:01:32;;;;;;;14.10;7.93;;;8.70;15.10;;;;;;5107666;28;20424;-73
2024/03/04 08:04:01;;;;;;;12.50;9.10;;;8.70;14.00;;;;;;5108473;28;20414;-71
2024/03/04 08:06:27;;;;;;;15.73;9.33;;;8.70;13.50;;;;;;5109278;28;20203;-71
2024/03/04 08:08:52;;;;;;;16.10;10.17;;;8.70;13.50;;;;;;5110093;28;20461;-73
2024/03/04 08:11:18;;;;;;;10.67;7.17;;;8.60;13.50;;;;;;5108217;28;20191;-73
2024/03/04 08:13:44;;;;;;;14.13;9.87;;;8.70;14.00;;;;;;5109030;28;20212;-73
2024/03/04 08:16:09;;;;;;;17.00;10.03;;;8.80;12.80;;;;;;5109151;28;20759;-73
2024/03/04 08:18:35;;;;;;;14.60;10.40;;;8.80;13.30;;;;;;5109387;28;20651;-72
2024/03/04 08:21:00;;;;;;;15.23;9.43;;;8.70;13.40;;;;;;5109513;28;20167;-73
2024/03/04 08:23:26;;;;;;;15.13;9.00;;;8.60;13.90;;;;;;5110317;28;20714;-74
2024/03/04 08:25:52;;;;;;;13.33;8.83;;;8.70;14.30;;;;;;5101342;28;20196;-73
2024/03/04 08:28:17;;;;;;;18.90;10.50;;;8.70;13.50;;;;;;5094895;28;20925;-72
2024/03/04 08:30:43;;;;;;;15.00;9.63;;;8.70;14.00;;;;;;5095275;28;20185;-72
2024/03/04 08:33:08;;;;;;;15.77;10.10;;;8.80;14.00;;;;;;5096819;28;20188;-73
2024/03/04 08:35:34;;;;;;;12.13;8.50;;;8.90;12.60;;;;;;5101187;28;20221;-73
2024/03/04 08:37:59;;;;;;;14.23;8.90;;;8.80;13.30;;;;;;5097830;28;20595;-72
2024/03/04 08:40:26;;;;;;;12.23;7.90;;;8.90;13.30;;;;;;5099805;28;20581;-74
2024/03/04 08:42:52;;;;;;;15.63;9.53;;;8.90;12.70;;;;;;5095052;28;20173;-75
2024/03/04 08:45:18;;;;;;;11.70;8.90;;;8.90;12.80;;;;;;5095659;28;20425;-72
2024/03/04 08:47:43;;;;;;;15.67;10.17;;;8.90;13.30;;;;;;5094630;28;20272;-72
2024/03/04 08:50:09;;;;;;;14.07;10.17;;;8.90;13.30;;;;;;5095856;28;20259;-72
2024/03/04 08:52:35;;;;;;;16.20;9.90;;;8.80;14.00;;;;;;5095879;28;20235;-73
2024/03/04 08:55:01;;;;;;;16.20;11.57;;;8.80;14.30;;;;;;5094821;28;20459;-72
2024/03/04 08:57:27;;;;;;;16.23;11.30;;;8.80;14.90;;;;;;5095123;28;20517;-73
2024/03/04 08:59:52;;;;;;;12.87;9.50;;;8.80;15.60;;;;;;5094864;28;20179;-73
2024/03/04 09:02:19;;;;;;;13.07;9.77;;;8.70;16.50;;;;;;5094695;28;20451;-73
2024/03/04 09:04:49;;;;;;;14.67;9.47;;;8.70;16.90;;;;;;5094648;28;20183;-72
2024/03/04 09:07:15;;;;;;;14.90;10.20;;;8.70;16.60;;;;;;5094768;28;20510;-73
2024/03/04 09:09:50;;;;;;;18.07;10.20;;;8.80;16.90;;;;;;5094466;28;20854;-73
2024/03/04 09:12:16;;;;;;;18.30;11.03;;;8.60;18.20;;;;;;5094573;28;20658;-73
2024/03/04 09:14:41;;;;;;;11.40;8.90;;;8.40;20.90;;;;;;5093927;28;20496;-74
2024/03/04 09:17:08;;;;;;;22.37;12.37;;;8.40;22.30;;;;;;5094304;28;20576;-72
2024/03/04 09:19:40;;;;;;;22.70;11.20;;;8.40;22.30;;;;;;5095151;28;20236;-71
2024/03/04 09:22:07;;;;;;;18.10;13.30;;;8.50;22.40;;;;;;5093942;28;20414;-71
2024/03/04 09:24:32;;;;;;;20.73;10.40;;;8.60;22.50;;;;;;5093663;28;20551;-72
2024/03/04 09:27:00;;;;;;;20.20;12.00;;;8.70;21.80;;;;;;5093732;28;20513;-72
2024/03/04 09:29:26;;;;;;;18.40;12.90;;;8.90;21.30;;;;;;5092418;28;20454;-71
2024/03/04 09:31:52;;;;;;;14.50;11.00;;;8.80;20.30;;;;;;5093699;28;20407;-71
2024/03/04 09:34:17;;;;;;;15.60;10.17;;;8.80;21.30;;;;;;5093528;28;20276;-71
2024/03/04 09:36:43;;;;;;;21.40;12.10;;;8.90;19.60;;;;;;5092742;28;20197;-71
2024/03/04 09:39:08;;;;;;;17.70;10.47;;;8.90;19.90;;;;;;5093616;28;20256;-71
2024/03/04 09:41:37;;;;;;;17.07;12.43;;;9.00;18.40;;;;;;5093723;28;20728;-70
2024/03/04 09:44:04;;;;;;;17.10;11.20;;;8.90;20.10;;;;;;5093607;28;20185;-72
2024/03/04 09:46:36;;;;;;;15.57;11.07;;;9.10;19.70;;;;;;5092231;28;20462;-72
2024/03/04 09:49:02;;;;;;;18.10;10.60;;;8.90;20.00;;;;;;5093597;28;20990;-72
2024/03/04 09:51:30;;;;;;;15.77;10.47;;;8.90;20.70;;;;;;5093444;28;20785;-72
2024/03/04 09:53:57;;;;;;;18.40;11.07;;;8.90;18.80;;;;;;5093151;28;20462;-71
2024/03/04 09:56:24;;;;;;;16.37;10.43;;;9.00;18.90;;;;;;5093253;28;20472;-70
2024/03/04 09:58:49;;;;;;;19.93;12.03;;;9.20;18.50;;;;;;5092201;28;20512;-71
2024/03/04 10:01:17;;;;;;;13.40;8.93;;;9.50;16.20;;;;;;5093117;28;20498;-71
2024/03/04 10:03:42;;;;;;;18.60;11.60;;;9.80;14.00;;;;;;5092966;28;20412;-71
2024/03/04 10:06:08;;;;;;;18.10;9.83;;;9.80;11.40;;;;;;5092394;28;20449;-71
2024/03/04 10:08:34;;;;;;;20.67;11.00;;;10.10;10.30;;;;;;5093019;28;20189;-72
2024/03/04 10:11:00;;;;;;;23.90;13.50;;;10.10;10.30;;;;;;5092189;28;20170;-72
2024/03/04 10:13:27;;;;;;;28.30;12.47;;;10.00;8.40;;;;;;5090483;28;20460;-72
2024/03/04 10:15:53;;;;;;;20.57;9.50;;;9.80;11.50;;;;;;5092919;28;20254;-72
2024/03/04 10:18:19;;;;;;;16.00;10.20;;;9.90;11.90;;;;;;5082003;28;20777;-72
2024/03/04 10:20:44;;;;;;;18.17;10.43;;;10.10;9.60;;;;;;5085472;28;20602;-72
2024/03/04 10:23:11;;;;;;;24.40;12.00;;;10.00;9.00;;;;;;5092840;28;20230;-72
2024/03/04 10:25:37;;;;;;;21.97;11.43;;;9.90;10.30;;;;;;5092580;28;20233;-71
2024/03/04 10:28:05;;;;;;;29.50;14.10;;;9.80;10.30;;;;;;5092073;28;20414;-71
2024/03/04 10:30:32;;;;;;;45.40;15.53;;;9.80;11.10;;;;;;5093186;28;20173;-71
2024/03/04 10:32:59;;;;;;;82.43;24.63;;;9.60;12.20;;;;;;5091120;28;20423;-72
2024/03/04 10:35:26;;;;;;;41.67;17.47;;;9.40;13.30;;;;;;5090925;28;20434;-72
2024/03/04 10:37:56;;;;;;;34.10;14.43;;;9.40;13.10;;;;;;5092712;28;20917;-71
2024/03/04 10:40:22;;;;;;;22.93;12.90;;;9.30;13.70;;;;;;5091548;28;20412;-72
2024/03/04 10:42:48;;;;;;;20.60;13.17;;;9.20;14.30;;;;;;5087044;28;20514;-72
2024/03/04 10:45:15;;;;;;;21.53;12.47;;;9.10;15.10;;;;;;5072341;28;20491;-72
2024/03/04 10:47:43;;;;;;;17.30;10.77;;;9.10;15.20;;;;;;5081097;28;21035;-71
2024/03/04 10:50:09;;;;;;;21.00;10.67;;;9.10;15.60;;;;;;5086088;28;20469;-71
2024/03/04 10:52:35;;;;;;;19.80;11.43;;;9.10;16.60;;;;;;5093150;28;20403;-72
2024/03/04 10:55:02;;;;;;;18.80;11.73;;;9.20;15.30;;;;;;5092971;28;20546;-71
2024/03/04 10:57:32;;;;;;;20.90;11.03;;;9.30;15.90;;;;;;5094441;28;20769;-71
2024/03/04 11:00:02;;;;;;;16.23;11.00;;;9.30;15.20;;;;;;5079205;28;20426;-71
2024/03/04 11:02:42;;;;;;;22.90;12.40;;;9.40;14.40;;;;;;5080496;28;20399;-71
2024/03/04 11:05:11;;;;;;;16.17;11.13;;;9.50;13.60;;;;;;5093057;28;20434;-69
2024/03/04 11:07:44;;;;;;;24.40;13.03;;;9.60;12.50;;;;;;5098242;28;20431;-70
2024/03/04 11:10:19;;;;;;;17.97;11.20;;;9.50;11.80;;;;;;5095297;28;20467;-70
2024/03/04 11:12:55;;;;;;;18.40;11.53;;;9.70;12.00;;;;;;5094776;28;20425;-70
2024/03/04 11:15:24;;;;;;;17.20;10.43;;;9.90;10.70;;;;;;5097034;28;20446;-70
2024/03/04 11:17:56;;;;;;;19.40;11.30;;;10.00;9.70;;;;;;5097301;28;20907;-69
2024/03/04 11:20:24;;;;;;;16.03;11.33;;;10.10;9.10;;;;;;5093698;28;20404;-70
2024/03/04 11:22:52;;;;;;;14.60;9.60;;;10.40;8.10;;;;;;5093420;28;20411;-70
2024/03/04 11:25:18;;;;;;;22.37;11.93;;;10.60;7.40;;;;;;5092999;28;20922;-70
2024/03/04 11:27:44;;;;;;;13.50;7.50;;;10.80;4.60;;;;;;5094058;28;20959;-72
2024/03/04 11:30:11;;;;;;;24.23;11.17;;;10.90;3.20;;;;;;5092079;28;20503;-69
2024/03/04 11:32:37;;;;;;;19.73;10.10;;;10.90;3.50;;;;;;5095703;28;20525;-72
2024/03/04 11:35:10;;;;;;;17.23;10.70;;;10.80;3.60;;;;;;5092046;28;20626;-73
2024/03/04 11:37:52;;;;;;;13.83;9.60;;;10.80;3.70;;;;;;5090886;28;20174;-72
2024/03/04 11:40:23;;;;;;;13.60;10.73;;;10.90;3.20;;;;;;5091849;28;20415;-72
2024/03/04 11:42:49;;;;;;;14.57;10.27;;;10.60;3.90;;;;;;5091966;28;20778;-72
2024/03/04 11:45:21;;;;;;;17.33;10.13;;;10.40;3.50;;;;;;5086397;28;20518;-72
2024/03/04 11:47:47;;;;;;;19.03;8.87;;;10.30;4.60;;;;;;5092187;28;20403;-72
2024/03/04 11:50:46;;;;;;;13.00;8.90;;;10.20;5.30;;;;;;5093068;28;20407;-73
2024/03/04 11:53:28;;;;;;;17.30;10.70;;;10.30;6.30;;;;;;5091708;28;20476;-72
2024/03/04 11:55:54;;;;;;;14.20;10.77;;;10.10;7.10;;;;;;5092191;28;20427;-72
2024/03/04 11:58:24;;;;;;;15.77;9.63;;;10.10;7.60;;;;;;5092068;28;20407;-72
2024/03/04 12:00:50;;;;;;;12.73;8.67;;;10.20;8.70;;;;;;5092858;28;20499;-72
2024/03/04 12:03:16;;;;;;;11.93;8.87;;;10.20;7.70;;;;;;5094499;28;20415;-72
2024/03/04 12:05:42;;;;;;;10.30;7.73;;;10.50;6.50;;;;;;5095505;28;20458;-72
2024/03/04 12:08:08;;;;;;;9.33;7.00;;;10.50;6.10;;;;;;5095876;28;20177;-73
2024/03/04 12:10:36;;;;;;;15.13;8.80;;;10.50;4.90;;;;;;5096288;28;20411;-72
2024/03/04 12:13:03;;;;;;;12.00;9.00;;;10.50;5.60;;;;;;5095572;28;20883;-73
2024/03/04 12:15:29;;;;;;;11.47;7.40;;;10.40;6.10;;;;;;5094619;28;20836;-72
2024/03/04 12:17:55;;;;;;;14.57;8.80;;;10.30;5.40;;;;;;5095869;28;20430;-73
2024/03/04 12:20:27;;;;;;;12.13;8.00;;;10.30;7.00;;;;;;5095863;28;20411;-73
2024/03/04 12:22:52;;;;;;;16.57;8.50;;;10.30;6.20;;;;;;5095597;28;20548;-72
2024/03/04 12:25:22;;;;;;;11.90;8.27;;;10.50;5.60;;;;;;5095247;28;20415;-72
2024/03/04 12:27:56;;;;;;;13.80;7.67;;;10.50;5.60;;;;;;5093818;28;20189;-72
2024/03/04 12:30:24;;;;;;;18.80;9.37;;;10.40;5.50;;;;;;5095503;28;20410;-72
2024/03/04 12:32:51;;;;;;;68.80;18.57;;;10.30;6.30;;;;;;5095604;28;20990;-72
2024/03/04 12:35:27;;;;;;;19.17;10.10;;;10.50;5.60;;;;;;5093717;28;20451;-72
2024/03/04 12:37:54;;;;;;;12.47;8.57;;;10.60;5.20;;;;;;5094974;28;20442;-72